createdAt,value
2022-12-28T00:04:58.281Z,3.70
2022-12-28T00:10:02.607Z,3.53
2022-12-28T00:15:06.226Z,3.70
2022-12-28T00:20:10.132Z,3.57
2022-12-28T00:25:14.329Z,3.73
2022-12-28T00:30:17.398Z,3.78
2022-12-28T00:35:20.324Z,3.71
2022-12-28T00:40:24.585Z,3.71
2022-12-28T00:45:27.588Z,3.83
2022-12-28T00:50:30.520Z,3.82
2022-12-28T00:55:35.398Z,3.88
2022-12-28T01:00:38.961Z,3.93
2022-12-28T01:05:41.967Z,3.74
2022-12-28T01:10:46.225Z,3.76
2022-12-28T01:15:49.146Z,3.78
2022-12-28T01:20:52.078Z,3.78
2022-12-28T01:25:56.351Z,3.74
2022-12-28T01:31:04.555Z,3.73
2022-12-28T01:36:08.808Z,3.66
2022-12-28T01:41:17.645Z,3.42
2022-12-28T01:46:24.469Z,3.45
2022-12-28T01:51:31.357Z,3.47
2022-12-28T01:56:35.703Z,3.33
2022-12-28T02:01:38.947Z,3.33
2022-12-28T02:06:41.996Z,3.18
2022-12-28T02:11:46.684Z,2.62
2022-12-28T02:16:49.701Z,2.71
2022-12-28T02:22:10.297Z,2.65
2022-12-28T02:27:24.432Z,2.57
2022-12-28T02:32:42.248Z,2.74
2022-12-28T02:37:48.627Z,3.19
2022-12-28T02:42:53.402Z,3.11
2022-12-28T02:48:15.184Z,3.38
2022-12-28T02:53:34.279Z,3.33
2022-12-28T02:59:03.046Z,3.52
2022-12-28T03:04:14.875Z,3.44
2022-12-28T03:09:22.348Z,3.68
2022-12-28T03:14:31.523Z,3.62
2022-12-28T03:19:57.346Z,3.72
2022-12-28T03:25:19.834Z,3.81
2022-12-28T03:30:41.417Z,4.03
2022-12-28T03:35:53.648Z,3.95
2022-12-28T03:41:04.068Z,3.88
2022-12-28T03:46:14.633Z,3.92
2022-12-28T03:51:25.097Z,4.03
2022-12-28T03:56:30.248Z,4.03
2022-12-28T04:01:36.893Z,3.98
2022-12-28T04:06:41.253Z,3.87
2022-12-28T04:11:44.292Z,3.99
2022-12-28T04:16:55.527Z,4.07
2022-12-28T04:21:59.825Z,4.04
2022-12-28T04:27:02.922Z,4.13
2022-12-28T04:32:06.514Z,3.98
2022-12-28T04:37:11.342Z,3.96
2022-12-28T04:42:14.296Z,4.08
2022-12-28T04:47:17.161Z,4.15
2022-12-28T04:52:22.405Z,4.01
2022-12-28T04:57:25.320Z,4.06
2022-12-28T05:02:28.276Z,4.08
2022-12-28T05:07:32.855Z,4.10
2022-12-28T05:12:35.781Z,3.99
2022-12-28T05:17:38.707Z,4.05
2022-12-28T05:22:42.915Z,4.12
2022-12-28T05:27:45.805Z,4.24
2022-12-28T05:32:48.676Z,4.23
2022-12-28T05:37:53.701Z,4.19
2022-12-28T05:42:56.714Z,4.23
2022-12-28T05:47:59.635Z,4.27
2022-12-28T05:53:03.942Z,4.32
2022-12-28T05:58:08.493Z,4.53
2022-12-28T06:03:11.481Z,4.53
2022-12-28T06:08:20.960Z,4.58
2022-12-28T06:13:25.495Z,4.51
2022-12-28T06:18:30.110Z,4.52
2022-12-28T06:23:34.994Z,4.55
2022-12-28T06:28:38.758Z,4.62
2022-12-28T06:33:42.530Z,4.79
2022-12-28T06:38:47.532Z,4.76
2022-12-28T06:43:51.117Z,4.84
2022-12-28T06:48:54.191Z,5.01
2022-12-28T06:53:58.575Z,5.01
2022-12-28T06:59:03.878Z,5.11
2022-12-28T07:04:08.995Z,5.01
2022-12-28T07:09:16.265Z,5.11
2022-12-28T07:14:19.346Z,5.18
2022-12-28T07:19:22.268Z,5.27
2022-12-28T07:24:26.533Z,5.29
2022-12-28T07:29:29.445Z,5.29
2022-12-28T07:34:32.351Z,5.55
2022-12-28T07:39:36.750Z,5.47
2022-12-28T07:44:45.483Z,5.47
2022-12-28T07:49:51.684Z,5.62
2022-12-28T07:54:55.954Z,5.54
2022-12-28T07:59:58.970Z,5.65
2022-12-28T08:05:01.884Z,5.76
2022-12-28T08:10:06.926Z,5.77
2022-12-28T08:15:10.912Z,5.91
2022-12-28T08:20:13.951Z,5.85
2022-12-28T08:25:18.500Z,5.87
2022-12-28T08:30:21.489Z,5.96
2022-12-28T08:35:24.403Z,6.10
2022-12-28T08:40:30.005Z,6.18
2022-12-28T08:45:33.076Z,6.26
2022-12-28T08:50:35.959Z,6.44
2022-12-28T08:55:40.167Z,6.63
2022-12-28T09:00:43.102Z,6.78
2022-12-28T09:05:47.881Z,6.87
2022-12-28T09:10:54.274Z,7.00
2022-12-28T09:15:58.480Z,7.06
2022-12-28T09:21:05.995Z,7.17
2022-12-28T09:26:12.424Z,7.35
2022-12-28T09:31:16.205Z,7.53
2022-12-28T09:36:19.396Z,7.63
2022-12-28T09:41:29.688Z,7.66
2022-12-28T09:46:34.563Z,7.63
2022-12-28T09:51:42.421Z,7.85
2022-12-28T09:56:48.914Z,7.99
2022-12-28T10:01:57.024Z,8.01
2022-12-28T10:07:01.952Z,8.06
2022-12-28T10:12:14.961Z,8.04
2022-12-28T10:17:21.201Z,8.08
2022-12-28T10:22:26.708Z,8.09
2022-12-28T10:27:32.906Z,8.16
2022-12-28T10:32:50.098Z,8.29
2022-12-28T10:38:02.501Z,8.33
2022-12-28T10:43:11.140Z,8.46
2022-12-28T10:48:18.365Z,8.50
2022-12-28T10:53:27.026Z,8.58
2022-12-28T10:58:33.519Z,8.67
2022-12-28T11:03:40.797Z,8.54
2022-12-28T11:08:46.327Z,8.55
2022-12-28T11:13:56.572Z,8.64
2022-12-28T11:18:59.537Z,8.63
2022-12-28T11:24:02.808Z,8.71
2022-12-28T11:29:07.040Z,8.71
2022-12-28T11:34:18.157Z,8.67
2022-12-28T11:39:43.928Z,8.63
2022-12-28T11:44:53.293Z,8.75
2022-12-28T11:49:56.291Z,8.74
2022-12-28T11:55:00.607Z,8.76
2022-12-28T12:00:48.883Z,8.75
2022-12-28T12:05:54.201Z,8.86
2022-12-28T12:11:22.053Z,8.79
2022-12-28T12:16:30.926Z,8.86
2022-12-28T12:21:40.518Z,8.81
2022-12-28T12:26:50.844Z,8.95
2022-12-28T12:32:01.574Z,8.88
2022-12-28T12:37:36.724Z,8.92
2022-12-28T12:42:51.414Z,8.86
2022-12-28T12:48:25.522Z,8.88
2022-12-28T12:53:48.655Z,9.03
2022-12-28T12:59:01.662Z,8.98
2022-12-28T13:04:09.231Z,8.87
2022-12-28T13:09:17.686Z,8.93
2022-12-28T13:14:22.850Z,8.91
2022-12-28T13:19:27.735Z,8.96
2022-12-28T13:24:36.055Z,8.89
2022-12-28T13:29:41.086Z,8.94
2022-12-28T13:34:50.636Z,8.94
2022-12-28T13:40:13.929Z,8.86
2022-12-28T13:45:17.938Z,8.93
2022-12-28T13:50:25.195Z,8.94
2022-12-28T13:55:34.870Z,8.85
2022-12-28T14:00:39.961Z,8.84
2022-12-28T14:05:44.807Z,8.81
2022-12-28T14:10:50.119Z,8.81
2022-12-28T14:15:55.430Z,8.85
2022-12-28T14:20:59.575Z,8.82
2022-12-28T14:26:06.476Z,8.80
2022-12-28T14:31:11.655Z,8.68
2022-12-28T14:36:21.880Z,8.73
2022-12-28T14:41:30.968Z,8.76
2022-12-28T14:46:36.135Z,8.68
2022-12-28T14:51:44.074Z,8.76
2022-12-28T14:56:52.691Z,8.59
2022-12-28T15:01:55.918Z,8.51
2022-12-28T15:06:58.926Z,8.33
2022-12-28T15:12:10.564Z,8.33
2022-12-28T15:17:14.839Z,8.36
2022-12-28T15:22:18.602Z,8.25
2022-12-28T15:27:23.013Z,8.23
2022-12-28T15:32:25.989Z,8.28
2022-12-28T15:37:28.896Z,8.29
2022-12-28T15:42:38.231Z,8.23
2022-12-28T15:47:43.584Z,8.17
2022-12-28T15:52:46.472Z,8.10
2022-12-28T15:57:50.730Z,8.19
2022-12-28T16:02:55.397Z,8.19
2022-12-28T16:07:58.487Z,8.09
2022-12-28T16:13:02.742Z,8.04
2022-12-28T16:18:05.759Z,8.10
2022-12-28T16:23:08.678Z,8.08
2022-12-28T16:28:12.909Z,8.10
2022-12-28T16:33:15.779Z,8.10
2022-12-28T16:38:20.415Z,8.12
2022-12-28T16:43:25.184Z,8.09
2022-12-28T16:48:28.052Z,8.11
2022-12-28T16:53:31.732Z,8.29
2022-12-28T16:58:35.987Z,8.04
2022-12-28T17:03:39.888Z,7.97
2022-12-28T17:08:43.147Z,8.18
2022-12-28T17:13:47.403Z,8.08
2022-12-28T17:18:50.398Z,8.19
2022-12-28T17:23:53.520Z,8.08
2022-12-28T17:28:58.189Z,8.10
2022-12-28T17:34:02.911Z,8.11
2022-12-28T17:39:05.888Z,8.12
2022-12-28T17:44:11.824Z,8.11
2022-12-28T17:49:16.591Z,8.06
2022-12-28T17:54:19.538Z,8.03
2022-12-28T17:59:23.816Z,8.08
2022-12-28T18:04:26.694Z,8.04
2022-12-28T18:09:29.649Z,8.08
2022-12-28T18:14:33.911Z,8.10
2022-12-28T18:19:37.027Z,8.13
2022-12-28T18:24:40.322Z,8.07
2022-12-28T18:29:45.285Z,8.03
2022-12-28T18:34:48.236Z,8.00
2022-12-28T18:39:51.129Z,8.04
2022-12-28T18:44:55.476Z,7.99
2022-12-28T18:49:58.373Z,8.08
2022-12-28T18:55:01.298Z,8.16
2022-12-28T19:00:08.425Z,8.14
2022-12-28T19:05:11.906Z,8.11
2022-12-28T19:10:15.940Z,8.16
2022-12-28T19:15:20.232Z,8.14
2022-12-28T19:20:23.181Z,8.09
2022-12-28T19:25:26.043Z,8.14
2022-12-28T19:30:30.281Z,8.23
2022-12-28T19:35:33.194Z,8.16
2022-12-28T19:40:36.083Z,8.20
2022-12-28T19:45:40.317Z,8.22
2022-12-28T19:50:43.315Z,8.34
2022-12-28T19:55:46.181Z,8.21
2022-12-28T20:00:50.437Z,8.30
2022-12-28T20:05:53.329Z,8.28
2022-12-28T20:10:57.085Z,8.40
2022-12-28T20:16:01.513Z,8.41
2022-12-28T20:21:19.199Z,8.54
2022-12-28T20:26:24.988Z,8.50
2022-12-28T20:31:29.907Z,8.59
2022-12-28T20:36:34.031Z,8.65
2022-12-28T20:41:54.294Z,8.77
2022-12-28T20:46:59.086Z,8.71
2022-12-28T20:52:01.988Z,8.79
2022-12-28T20:57:04.868Z,8.91
2022-12-28T21:02:10.816Z,8.87
2022-12-28T21:07:13.766Z,8.84
2022-12-28T21:12:16.648Z,8.87
2022-12-28T21:17:20.901Z,8.81
2022-12-28T21:22:23.789Z,8.80
2022-12-28T21:27:26.769Z,8.97
2022-12-28T21:32:31.088Z,8.91
2022-12-28T21:37:36.679Z,8.81
2022-12-28T21:42:40.124Z,8.88
2022-12-28T21:47:44.391Z,8.98
2022-12-28T21:52:47.304Z,8.87
2022-12-28T21:57:51.063Z,8.88
2022-12-28T22:03:13.320Z,8.88
2022-12-28T22:08:33.480Z,8.79
2022-12-28T22:13:36.887Z,8.94
2022-12-28T22:24:04.008Z,8.94
2022-12-28T22:29:06.900Z,8.92
2022-12-28T22:34:11.141Z,8.94
2022-12-28T22:39:14.137Z,8.84
2022-12-28T22:44:17.124Z,8.99
2022-12-28T22:49:21.373Z,9.08
2022-12-28T22:54:24.523Z,9.00
2022-12-28T22:59:27.517Z,8.94
2022-12-28T23:04:31.865Z,9.01
2022-12-28T23:09:34.891Z,8.98
2022-12-28T23:14:55.035Z,9.07
2022-12-28T23:20:16.800Z,8.99
2022-12-28T23:25:39.763Z,9.09
2022-12-28T23:30:46.448Z,9.06
2022-12-28T23:35:50.771Z,9.13
2022-12-28T23:41:13.786Z,9.14
2022-12-28T23:46:16.939Z,9.05
2022-12-28T23:51:21.261Z,9.13
2022-12-28T23:56:24.964Z,9.13
